createdAt,value
2019-04-26T00:02:55.751Z,9.57
2019-04-26T00:05:46.425Z,4.93
2019-04-26T00:08:36.635Z,6.43
2019-04-26T00:11:47.272Z,5.07
2019-04-26T00:14:55.132Z,2.10
2019-04-26T00:17:49.211Z,4.40
2019-04-26T00:20:38.932Z,4.77
2019-04-26T00:23:29.372Z,5.33
2019-04-26T00:26:20.131Z,10.47
2019-04-26T00:29:11.254Z,6.57
2019-04-26T00:32:01.372Z,6.80
2019-04-26T00:34:51.531Z,10.37
2019-04-26T00:37:41.192Z,4.77
2019-04-26T00:40:31.587Z,4.67
2019-04-26T00:43:22.681Z,5.83
2019-04-26T00:46:14.813Z,5.57
2019-04-26T00:49:06.552Z,9.23
2019-04-26T00:51:57.492Z,7.77
2019-04-26T00:54:47.522Z,11.47
2019-04-26T00:57:38.167Z,5.53
2019-04-26T01:00:28.278Z,4.30
2019-04-26T01:03:18.619Z,9.57
2019-04-26T01:06:11.100Z,9.77
2019-04-26T01:09:01.511Z,6.93
2019-04-26T01:11:52.831Z,7.50
2019-04-26T01:14:44.571Z,7.87
2019-04-26T01:17:34.812Z,8.80
2019-04-26T01:20:28.292Z,12.10
2019-04-26T01:23:20.951Z,7.03
2019-04-26T01:26:19.214Z,6.00
2019-04-26T01:29:12.322Z,12.67
2019-04-26T01:32:09.934Z,10.40
2019-04-26T01:38:12.271Z,7.60
2019-04-26T01:41:07.272Z,6.20
2019-04-26T01:44:09.972Z,15.93
2019-04-26T01:47:00.605Z,4.53
2019-04-26T01:49:51.771Z,5.40
2019-04-26T01:52:44.874Z,4.50
2019-04-26T01:59:31.472Z,4.40
2019-04-26T02:02:47.539Z,16.80
2019-04-26T02:05:39.332Z,13.47
2019-04-26T02:08:30.369Z,9.00
2019-04-26T02:11:20.610Z,9.53
2019-04-26T02:14:11.359Z,7.37
2019-04-26T02:17:03.799Z,8.80
2019-04-26T02:19:54.334Z,14.30
2019-04-26T02:22:58.238Z,6.13
2019-04-26T02:25:48.578Z,10.33
2019-04-26T02:28:38.819Z,14.90
2019-04-26T02:31:31.490Z,8.63
2019-04-26T02:34:21.112Z,7.80
2019-04-26T02:37:13.355Z,9.67
2019-04-26T02:40:04.530Z,9.63
2019-04-26T02:42:54.799Z,9.30
2019-04-26T02:45:58.183Z,5.80
2019-04-26T02:49:31.249Z,11.33
2019-04-26T02:52:37.728Z,7.37
2019-04-26T02:55:53.756Z,7.07
2019-04-26T02:59:17.540Z,8.53
2019-04-26T03:02:30.148Z,4.30
2019-04-26T03:05:20.419Z,4.23
2019-04-26T03:08:18.146Z,8.20
2019-04-26T03:11:17.311Z,12.97
2019-04-26T03:14:25.379Z,9.37
2019-04-26T03:17:26.928Z,7.33
2019-04-26T03:20:21.080Z,8.70
2019-04-26T03:23:52.873Z,8.40
2019-04-26T03:26:54.839Z,14.00
2019-04-26T03:29:50.900Z,5.97
2019-04-26T03:33:28.216Z,6.63
2019-04-26T03:36:42.118Z,7.60
2019-04-26T03:39:50.179Z,8.13
2019-04-26T03:42:59.920Z,8.73
2019-04-26T03:46:13.600Z,10.20
2019-04-26T03:49:45.753Z,10.17
2019-04-26T03:53:06.124Z,8.77
2019-04-26T03:56:29.763Z,3.93
2019-04-26T03:59:53.363Z,5.77
2019-04-26T04:03:13.340Z,5.90
2019-04-26T04:06:08.200Z,6.73
2019-04-26T04:09:18.116Z,8.40
2019-04-26T04:12:30.180Z,6.67
2019-04-26T04:15:28.522Z,10.00
2019-04-26T04:18:23.145Z,7.83
2019-04-26T04:21:30.965Z,6.70
2019-04-26T04:24:52.660Z,8.43
2019-04-26T04:28:03.533Z,13.83
2019-04-26T04:31:06.695Z,7.40
2019-04-26T04:34:20.546Z,12.87
2019-04-26T04:37:14.242Z,5.60
2019-04-26T04:40:24.098Z,10.70
2019-04-26T04:43:30.980Z,7.13
2019-04-26T04:47:22.640Z,7.70
2019-04-26T04:50:32.419Z,6.77
2019-04-26T04:53:45.079Z,15.90
2019-04-26T04:57:17.079Z,7.20
2019-04-26T05:00:49.313Z,16.48
2019-04-26T05:03:53.678Z,12.17
2019-04-26T05:07:26.219Z,11.03
2019-04-26T05:10:32.745Z,8.03
2019-04-26T05:13:38.479Z,17.10
2019-04-26T05:17:24.600Z,13.73
2019-04-26T05:20:47.015Z,20.03
2019-04-26T05:24:08.398Z,3.57
2019-04-26T05:27:30.298Z,15.30
2019-04-26T05:31:08.811Z,16.73
2019-04-26T05:34:24.438Z,9.30
2019-04-26T05:37:57.331Z,24.00
2019-04-26T05:41:20.099Z,8.97
2019-04-26T05:44:37.519Z,8.57
2019-04-26T05:47:45.909Z,4.27
2019-04-26T05:51:29.082Z,13.97
2019-04-26T05:55:13.389Z,6.33
2019-04-26T05:58:25.700Z,8.63
2019-04-26T06:02:13.199Z,12.10
2019-04-26T06:05:56.698Z,10.13
2019-04-26T06:09:17.166Z,17.80
2019-04-26T06:12:37.869Z,17.17
2019-04-26T06:16:05.340Z,12.03
2019-04-26T06:19:25.201Z,15.13
2019-04-26T06:22:26.418Z,8.57
2019-04-26T06:25:30.284Z,14.90
2019-04-26T06:28:48.539Z,11.47
2019-04-26T06:31:49.544Z,11.90
2019-04-26T06:35:10.010Z,14.57
2019-04-26T06:39:04.190Z,10.77
2019-04-26T06:42:24.079Z,9.70
2019-04-26T06:45:49.518Z,12.00
2019-04-26T06:49:19.140Z,9.93
2019-04-26T06:52:16.379Z,14.33
2019-04-26T06:55:50.605Z,8.07
2019-04-26T06:59:36.307Z,6.40
2019-04-26T07:02:28.898Z,8.97
2019-04-26T07:05:25.099Z,13.97
2019-04-26T07:08:42.181Z,11.87
2019-04-26T07:12:21.792Z,7.73
2019-04-26T07:15:37.059Z,10.67
2019-04-26T07:19:08.244Z,8.00
2019-04-26T07:22:43.618Z,9.23
2019-04-26T07:26:16.740Z,10.58
2019-04-26T07:29:32.579Z,12.75
2019-04-26T07:33:23.958Z,11.30
2019-04-26T07:36:49.998Z,14.60
2019-04-26T07:40:52.422Z,18.32
2019-04-26T07:44:42.324Z,18.30
2019-04-26T07:48:20.979Z,8.43
2019-04-26T07:51:57.479Z,9.60
2019-04-26T07:55:27.139Z,10.72
2019-04-26T07:59:05.573Z,13.20
2019-04-26T08:02:16.938Z,9.43
2019-04-26T08:05:19.779Z,16.06
2019-04-26T08:08:12.618Z,19.20
2019-04-26T08:11:11.129Z,12.05
2019-04-26T08:14:20.575Z,18.57
2019-04-26T08:17:41.219Z,20.77
2019-04-26T08:20:48.229Z,18.25
2019-04-26T08:23:48.058Z,14.93
2019-04-26T08:26:41.119Z,10.53
2019-04-26T08:29:33.307Z,8.18
2019-04-26T08:32:32.081Z,12.85
2019-04-26T08:35:29.652Z,15.10
2019-04-26T08:38:22.772Z,14.85
2019-04-26T08:41:14.200Z,13.18
2019-04-26T08:44:27.618Z,16.95
2019-04-26T08:47:51.075Z,7.58
2019-04-26T08:50:45.909Z,16.25
2019-04-26T08:53:41.199Z,19.82
2019-04-26T08:56:36.279Z,12.03
2019-04-26T08:59:30.019Z,13.38
2019-04-26T09:03:10.940Z,19.00
2019-04-26T09:06:03.320Z,17.75
2019-04-26T09:08:56.079Z,10.28
2019-04-26T09:11:59.104Z,10.23
2019-04-26T09:14:45.178Z,16.40
2019-04-26T09:17:34.818Z,12.95
2019-04-26T09:20:29.720Z,14.43
2019-04-26T09:23:39.542Z,11.35
2019-04-26T09:26:27.995Z,20.92
2019-04-26T09:29:26.380Z,11.33
2019-04-26T09:32:17.999Z,9.20
2019-04-26T09:35:11.245Z,19.02
2019-04-26T09:38:00.398Z,14.40
2019-04-26T09:40:52.641Z,8.18
2019-04-26T09:43:55.004Z,15.00
2019-04-26T09:47:01.839Z,24.40
2019-04-26T09:50:11.256Z,14.43
2019-04-26T09:53:02.818Z,9.98
2019-04-26T09:55:53.038Z,18.23
2019-04-26T09:58:43.211Z,16.60
2019-04-26T10:01:34.799Z,15.70
2019-04-26T10:04:24.481Z,15.48
2019-04-26T10:07:14.639Z,18.02
2019-04-26T10:10:05.059Z,10.65
2019-04-26T10:13:14.992Z,15.08
2019-04-26T10:16:09.864Z,14.30
2019-04-26T10:19:02.818Z,19.60
2019-04-26T10:21:52.339Z,24.18
2019-04-26T10:24:43.320Z,13.53
2019-04-26T10:27:36.410Z,18.10
2019-04-26T10:30:25.699Z,19.17
2019-04-26T10:33:15.698Z,20.35
2019-04-26T10:36:05.325Z,10.60
2019-04-26T10:38:58.501Z,19.70
2019-04-26T10:41:48.619Z,21.70
2019-04-26T10:44:40.031Z,19.37
2019-04-26T10:47:30.639Z,25.12
2019-04-26T10:50:21.729Z,16.10
2019-04-26T10:53:36.238Z,19.27
2019-04-26T10:56:40.418Z,13.45
2019-04-26T10:59:49.059Z,13.55
2019-04-26T11:02:39.300Z,18.55
2019-04-26T11:05:29.039Z,12.58
2019-04-26T11:08:19.939Z,11.38
2019-04-26T11:11:10.799Z,13.03
2019-04-26T11:14:02.000Z,24.87
2019-04-26T11:16:52.651Z,17.27
2019-04-26T11:19:44.263Z,15.13
2019-04-26T11:22:37.608Z,15.00
2019-04-26T11:25:28.261Z,13.43
2019-04-26T11:28:21.074Z,16.62
2019-04-26T11:31:08.960Z,23.12
2019-04-26T11:34:05.326Z,17.57
2019-04-26T11:36:52.281Z,8.83
2019-04-26T11:39:43.156Z,19.30
2019-04-26T11:42:33.696Z,25.45
2019-04-26T11:45:23.299Z,12.57
2019-04-26T11:48:13.539Z,17.40
2019-04-26T11:51:04.078Z,19.05
2019-04-26T11:53:54.618Z,15.63
2019-04-26T11:56:44.558Z,18.15
2019-04-26T11:59:35.458Z,12.25
2019-04-26T12:02:25.411Z,21.17
2019-04-26T12:05:34.500Z,26.93
2019-04-26T12:08:29.859Z,20.37
2019-04-26T12:11:25.882Z,22.50
2019-04-26T12:14:20.135Z,20.77
2019-04-26T12:17:04.740Z,21.50
2019-04-26T12:19:55.300Z,24.95
2019-04-26T12:23:04.342Z,15.05
2019-04-26T12:25:55.038Z,21.85
2019-04-26T12:28:45.121Z,21.70
2019-04-26T12:31:35.879Z,20.90
2019-04-26T12:34:25.361Z,15.38
2019-04-26T12:37:19.889Z,14.50
2019-04-26T12:40:11.365Z,25.40
2019-04-26T12:42:59.837Z,19.12
2019-04-26T12:46:08.999Z,20.57
2019-04-26T12:48:59.739Z,25.60
2019-04-26T12:51:52.126Z,27.17
2019-04-26T12:54:43.033Z,22.93
2019-04-26T12:57:36.661Z,14.68
2019-04-26T13:00:33.198Z,24.65
2019-04-26T13:03:24.977Z,24.02
2019-04-26T13:06:13.304Z,20.25
2019-04-26T13:09:04.522Z,25.82
2019-04-26T13:12:26.034Z,18.40
2019-04-26T13:16:10.979Z,18.40
2019-04-26T13:19:00.559Z,16.67
2019-04-26T13:21:51.034Z,28.07
2019-04-26T13:24:41.022Z,24.30
2019-04-26T13:27:31.559Z,25.02
2019-04-26T13:30:32.398Z,26.73
2019-04-26T13:33:14.578Z,23.50
2019-04-26T13:36:05.312Z,24.23
2019-04-26T13:38:56.437Z,16.82
2019-04-26T13:41:46.967Z,17.60
2019-04-26T13:45:00.879Z,21.40
2019-04-26T13:48:10.328Z,16.67
2019-04-26T13:51:05.900Z,21.00
2019-04-26T13:53:55.681Z,22.52
2019-04-26T13:57:06.227Z,19.92
2019-04-26T13:59:56.266Z,21.12
2019-04-26T14:02:46.179Z,14.28
2019-04-26T14:05:36.199Z,24.40
2019-04-26T14:08:27.138Z,28.42
2019-04-26T14:11:20.578Z,26.35
2019-04-26T14:14:08.613Z,20.95
2019-04-26T14:16:58.324Z,23.42
2019-04-26T14:19:49.522Z,21.12
2019-04-26T14:22:48.161Z,16.82
2019-04-26T14:25:50.610Z,24.10
2019-04-26T14:28:42.144Z,26.70
2019-04-26T14:31:33.232Z,25.80
2019-04-26T14:34:22.850Z,18.05
2019-04-26T14:37:15.496Z,29.27
2019-04-26T14:40:16.529Z,23.74
2019-04-26T14:43:06.965Z,17.98
2019-04-26T14:45:56.158Z,34.90
2019-04-26T14:48:44.774Z,28.15
2019-04-26T14:51:34.761Z,32.10
2019-04-26T14:54:24.919Z,18.80
2019-04-26T14:57:21.401Z,29.70
2019-04-26T15:00:12.609Z,29.00
2019-04-26T15:03:36.599Z,14.68
2019-04-26T15:06:31.963Z,25.27
2019-04-26T15:09:29.786Z,24.82
2019-04-26T15:12:15.797Z,19.25
2019-04-26T15:15:05.180Z,16.32
2019-04-26T15:17:59.379Z,23.42
2019-04-26T15:20:47.779Z,21.87
2019-04-26T15:23:38.437Z,24.18
2019-04-26T15:26:29.984Z,24.63
2019-04-26T15:29:26.763Z,35.10
2019-04-26T15:32:13.124Z,25.05
2019-04-26T15:35:02.898Z,22.90
2019-04-26T15:37:57.513Z,30.85
2019-04-26T15:41:05.435Z,21.93
2019-04-26T15:44:24.882Z,30.45
2019-04-26T15:47:34.381Z,18.27
2019-04-26T15:50:29.838Z,23.73
2019-04-26T15:53:21.394Z,27.05
2019-04-26T15:56:14.555Z,35.50
2019-04-26T15:59:03.779Z,33.55
2019-04-26T16:01:56.224Z,39.13
2019-04-26T16:04:50.391Z,20.20
2019-04-26T16:07:38.179Z,26.07
2019-04-26T16:10:29.558Z,22.80
2019-04-26T16:13:21.425Z,19.77
2019-04-26T16:16:12.608Z,20.95
2019-04-26T16:19:03.039Z,39.83
2019-04-26T16:21:55.281Z,22.47
2019-04-26T16:24:45.438Z,23.45
2019-04-26T16:27:35.140Z,26.13
2019-04-26T16:30:42.822Z,19.13
2019-04-26T16:33:35.627Z,30.48
2019-04-26T16:36:25.579Z,22.30
2019-04-26T16:39:16.275Z,13.90
2019-04-26T16:42:07.771Z,22.58
2019-04-26T16:45:04.199Z,22.45
2019-04-26T16:47:49.223Z,20.12
2019-04-26T16:50:44.229Z,20.32
2019-04-26T16:53:46.398Z,22.32
2019-04-26T16:56:26.500Z,19.23
2019-04-26T16:59:22.578Z,19.52
2019-04-26T17:02:06.660Z,18.10
2019-04-26T17:04:57.081Z,23.55
2019-04-26T17:07:47.431Z,47.70
2019-04-26T17:10:38.044Z,15.85
2019-04-26T17:13:30.003Z,25.63
2019-04-26T17:16:19.558Z,19.03
2019-04-26T17:19:09.924Z,28.40
2019-04-26T17:22:14.129Z,20.73
2019-04-26T17:25:24.434Z,17.27
2019-04-26T17:28:11.963Z,7.90
2019-04-26T17:31:02.839Z,11.23
2019-04-26T17:33:53.059Z,10.70
2019-04-26T17:36:46.346Z,4.80
2019-04-26T17:39:35.039Z,5.90
2019-04-26T17:42:30.371Z,4.63
2019-04-26T17:45:16.919Z,8.00
2019-04-26T17:48:11.739Z,11.10
2019-04-26T17:50:59.939Z,7.53
2019-04-26T17:53:58.804Z,7.10
2019-04-26T17:56:42.341Z,2.20
2019-04-26T17:59:34.699Z,5.23
2019-04-26T18:02:40.332Z,7.90
2019-04-26T18:05:15.219Z,8.97
2019-04-26T18:08:31.310Z,9.37
2019-04-26T18:10:56.518Z,1.47
2019-04-26T18:13:47.283Z,3.37
2019-04-26T18:16:40.099Z,3.97
2019-04-26T18:19:51.622Z,1.77
2019-04-26T18:22:48.018Z,9.80
2019-04-26T18:25:41.282Z,1.80
2019-04-26T18:28:30.018Z,2.23
2019-04-26T18:31:22.164Z,1.90
2019-04-26T18:34:12.789Z,2.53
2019-04-26T18:37:07.036Z,2.17
2019-04-26T18:39:57.376Z,2.00
2019-04-26T18:42:45.838Z,2.80
2019-04-26T18:45:36.424Z,4.43
2019-04-26T18:48:25.913Z,3.80
2019-04-26T18:51:16.918Z,3.67
2019-04-26T18:54:17.790Z,6.83
2019-04-26T18:57:09.530Z,3.60
2019-04-26T18:59:57.828Z,5.20
2019-04-26T19:02:48.401Z,2.90
2019-04-26T19:05:39.179Z,3.27
2019-04-26T19:08:29.199Z,4.17
2019-04-26T19:11:18.950Z,4.30
2019-04-26T19:14:48.729Z,2.73
2019-04-26T19:17:39.280Z,3.17
2019-04-26T19:20:54.423Z,5.17
2019-04-26T19:23:44.659Z,2.13
2019-04-26T19:26:35.119Z,3.70
2019-04-26T19:29:32.662Z,8.33
2019-04-26T19:32:17.358Z,3.10
2019-04-26T19:35:12.217Z,12.23
2019-04-26T19:37:59.737Z,9.20
2019-04-26T19:40:49.698Z,3.73
2019-04-26T19:43:44.918Z,10.77
2019-04-26T19:46:43.800Z,2.70
2019-04-26T19:49:54.178Z,7.20
2019-04-26T19:53:10.385Z,2.33
2019-04-26T19:56:12.107Z,10.00
2019-04-26T19:59:01.670Z,3.10
2019-04-26T20:01:55.225Z,1.57
2019-04-26T20:04:43.939Z,1.83
2019-04-26T20:07:33.520Z,5.10
2019-04-26T20:10:23.618Z,4.30
2019-04-26T20:13:16.505Z,3.90
2019-04-26T20:16:06.441Z,1.60
2019-04-26T20:18:57.429Z,4.23
2019-04-26T20:21:49.742Z,1.60
2019-04-26T20:24:38.980Z,1.70
2019-04-26T20:27:29.019Z,2.80
2019-04-26T20:30:45.258Z,0.80
2019-04-26T20:33:35.231Z,0.97
2019-04-26T20:36:25.459Z,1.13
2019-04-26T20:39:16.530Z,9.30
2019-04-26T20:42:07.407Z,0.80
2019-04-26T20:44:57.503Z,1.27
2019-04-26T20:47:52.035Z,0.87
2019-04-26T20:50:41.320Z,0.90
2019-04-26T20:53:40.129Z,6.13
2019-04-26T20:56:22.776Z,0.80
2019-04-26T20:59:16.649Z,1.20
2019-04-26T21:02:08.033Z,0.93
2019-04-26T21:04:56.419Z,0.90
2019-04-26T21:07:49.943Z,5.87
2019-04-26T21:10:38.681Z,0.80
2019-04-26T21:13:30.574Z,1.13
2019-04-26T21:16:19.905Z,1.50
2019-04-26T21:19:12.870Z,1.07
2019-04-26T21:22:02.650Z,0.50
2019-04-26T21:24:58.473Z,0.57
2019-04-26T21:28:12.185Z,0.40
2019-04-26T21:31:24.120Z,0.77
2019-04-26T21:34:26.978Z,4.97
2019-04-26T21:37:30.538Z,0.37
2019-04-26T21:40:26.211Z,1.43
2019-04-26T21:43:16.638Z,1.40
2019-04-26T21:46:08.381Z,1.50
2019-04-26T21:48:58.660Z,0.30
2019-04-26T21:51:51.992Z,1.60
2019-04-26T21:54:43.157Z,0.07
2019-04-26T21:57:34.990Z,0.50
2019-04-26T22:00:43.649Z,0.37
2019-04-26T22:03:34.803Z,0.20
2019-04-26T22:06:28.423Z,0.10
2019-04-26T22:09:48.578Z,1.70
2019-04-26T22:12:38.346Z,3.63
2019-04-26T22:15:37.603Z,8.10
2019-04-26T22:18:32.981Z,0.10
2019-04-26T22:21:45.914Z,1.53
2019-04-26T22:24:37.841Z,0.00
2019-04-26T22:27:27.783Z,2.93
2019-04-26T22:30:28.283Z,0.00
2019-04-26T22:33:15.260Z,0.27
2019-04-26T22:36:06.259Z,0.10
2019-04-26T22:39:01.687Z,0.57
2019-04-26T22:41:48.659Z,0.03
2019-04-26T22:44:43.856Z,0.20
2019-04-26T22:47:42.730Z,0.00
2019-04-26T22:50:33.612Z,0.00
2019-04-26T22:53:25.801Z,0.57
2019-04-26T22:56:15.399Z,1.13
2019-04-26T22:59:08.043Z,0.20
2019-04-26T23:01:57.188Z,0.63
2019-04-26T23:04:47.839Z,0.30
2019-04-26T23:07:37.703Z,0.00
2019-04-26T23:10:34.026Z,3.60
2019-04-26T23:13:33.839Z,0.10
2019-04-26T23:16:40.325Z,1.90
2019-04-26T23:19:40.253Z,1.10
2019-04-26T23:22:31.292Z,0.10
2019-04-26T23:25:23.729Z,0.10
2019-04-26T23:28:13.529Z,0.10
2019-04-26T23:31:07.804Z,0.93
2019-04-26T23:33:54.739Z,0.00
2019-04-26T23:36:49.067Z,0.83
2019-04-26T23:39:38.639Z,0.60
2019-04-26T23:42:28.538Z,0.37
2019-04-26T23:45:18.948Z,0.00
2019-04-26T23:48:12.165Z,0.50
2019-04-26T23:51:04.932Z,0.00
2019-04-26T23:53:54.927Z,0.10
2019-04-26T23:56:43.828Z,0.10
2019-04-26T23:59:33.799Z,2.63
